createdAt,value
2022-10-19T00:01:28.111Z,16.37
2022-10-19T00:04:08.962Z,16.35
2022-10-19T00:06:44.379Z,16.33
2022-10-19T00:09:23.029Z,16.33
2022-10-19T00:11:58.613Z,16.33
2022-10-19T00:14:31.440Z,16.32
2022-10-19T00:24:23.400Z,16.20
2022-10-19T00:27:05.447Z,16.16
2022-10-19T00:29:38.711Z,16.11
2022-10-19T00:32:05.369Z,16.10
2022-10-19T00:34:45.453Z,16.06
2022-10-19T00:37:18.664Z,16.04
2022-10-19T00:50:09.402Z,16.01
2022-10-19T00:52:49.450Z,16.01
2022-10-19T00:55:23.095Z,16.01
2022-10-19T00:57:56.469Z,16.04
2022-10-19T01:00:30.176Z,16.04
2022-10-19T01:03:04.446Z,16.03
2022-10-19T01:16:48.441Z,15.95
2022-10-19T01:20:09.502Z,15.94
2022-10-19T01:23:12.425Z,15.92
2022-10-19T01:26:03.231Z,15.93
2022-10-19T01:29:00.514Z,15.92
2022-10-19T01:31:46.578Z,15.92
2022-10-19T01:44:19.409Z,15.87
2022-10-19T01:49:44.902Z,15.84
2022-10-19T01:52:25.480Z,15.82
2022-10-19T01:55:03.151Z,15.79
2022-10-19T01:57:53.441Z,15.77
2022-10-19T02:11:08.666Z,15.74
2022-10-19T02:13:45.997Z,15.72
2022-10-19T02:16:35.453Z,15.75
2022-10-19T02:19:12.859Z,15.72
2022-10-19T02:21:52.446Z,15.69
2022-10-19T02:24:25.659Z,15.69
2022-10-19T02:37:15.465Z,15.56
2022-10-19T02:39:55.430Z,15.50
2022-10-19T02:42:35.498Z,15.48
2022-10-19T02:45:22.445Z,15.45
2022-10-19T02:48:02.680Z,15.41
2022-10-19T02:50:42.462Z,15.40
2022-10-19T02:53:17.877Z,15.40
2022-10-19T03:06:05.394Z,15.34
2022-10-19T03:08:40.438Z,15.35
2022-10-19T03:11:13.634Z,15.35
2022-10-19T03:13:48.744Z,15.34
2022-10-19T03:16:21.585Z,15.32
2022-10-19T03:18:55.435Z,15.29
2022-10-19T03:32:06.437Z,15.37
2022-10-19T03:34:45.162Z,15.38
2022-10-19T03:37:40.419Z,15.40
2022-10-19T03:40:13.700Z,15.39
2022-10-19T03:42:40.233Z,15.37
2022-10-19T03:59:05.437Z,15.25
2022-10-19T04:01:44.814Z,15.22
2022-10-19T04:04:26.429Z,15.20
2022-10-19T04:06:59.669Z,15.18
2022-10-19T04:09:26.258Z,15.18
2022-10-19T04:12:06.414Z,15.14
2022-10-19T04:25:17.414Z,15.06
2022-10-19T04:27:50.522Z,15.08
2022-10-19T04:30:17.337Z,15.09
2022-10-19T04:32:57.445Z,15.09
2022-10-19T04:35:30.526Z,15.08
2022-10-19T04:38:05.424Z,15.07
2022-10-19T04:51:18.434Z,15.02
2022-10-19T04:53:53.445Z,15.02
2022-10-19T04:56:35.418Z,14.99
2022-10-19T04:59:10.108Z,14.94
2022-10-19T05:01:46.419Z,14.94
2022-10-19T05:04:25.662Z,14.98
2022-10-19T05:17:30.470Z,14.84
2022-10-19T05:20:12.121Z,14.83
2022-10-19T05:22:45.464Z,14.86
2022-10-19T05:25:18.455Z,14.87
2022-10-19T05:27:52.394Z,14.86
2022-10-19T05:30:25.434Z,14.87
2022-10-19T05:33:00.386Z,14.85
2022-10-19T05:45:48.394Z,14.72
2022-10-19T05:48:30.526Z,14.70
2022-10-19T05:51:06.178Z,14.70
2022-10-19T05:53:40.409Z,14.70
2022-10-19T05:56:17.170Z,14.72
2022-10-19T05:58:58.430Z,14.73
2022-10-19T06:12:10.450Z,14.64
2022-10-19T06:14:43.551Z,14.65
2022-10-19T06:17:10.251Z,14.63
2022-10-19T06:19:50.429Z,14.62
2022-10-19T06:22:23.562Z,14.62
2022-10-19T06:38:37.425Z,14.54
2022-10-19T06:41:11.501Z,14.53
2022-10-19T06:43:45.438Z,14.50
2022-10-19T06:46:21.669Z,14.47
2022-10-19T06:49:00.401Z,14.48
2022-10-19T06:51:33.472Z,14.47
2022-10-19T06:54:09.423Z,14.48
2022-10-19T07:04:26.386Z,14.48
2022-10-19T07:07:06.417Z,14.48
2022-10-19T07:09:41.453Z,14.43
2022-10-19T07:12:15.411Z,14.42
2022-10-19T07:14:48.507Z,14.41
2022-10-19T07:17:15.057Z,14.40
2022-10-19T07:33:36.432Z,14.39
2022-10-19T07:36:12.660Z,14.37
2022-10-19T07:38:47.404Z,14.34
2022-10-19T07:41:23.093Z,14.37
2022-10-19T07:43:57.416Z,14.35
2022-10-19T07:57:52.444Z,14.47
2022-10-19T08:00:27.430Z,14.47
2022-10-19T08:03:31.630Z,14.50
2022-10-19T08:05:53.561Z,14.55
2022-10-19T08:08:26.440Z,14.58
2022-10-19T08:11:07.218Z,14.61
2022-10-19T08:13:48.405Z,14.64
2022-10-19T08:27:01.427Z,14.78
2022-10-19T08:29:35.329Z,14.80
2022-10-19T08:32:08.578Z,14.82
2022-10-19T08:34:41.613Z,14.81
2022-10-19T08:37:19.763Z,14.82
2022-10-19T08:54:00.428Z,14.90
2022-10-19T08:56:51.073Z,14.92
2022-10-19T08:59:46.415Z,14.95
2022-10-19T09:02:40.309Z,14.96
2022-10-19T09:19:01.436Z,15.06
2022-10-19T09:21:47.748Z,15.07
2022-10-19T09:24:46.390Z,15.11
2022-10-19T09:27:23.173Z,15.11
2022-10-19T09:30:05.390Z,15.12
2022-10-19T09:32:39.387Z,15.10
2022-10-19T09:45:40.386Z,15.18
2022-10-19T09:48:30.430Z,15.20
2022-10-19T09:51:12.031Z,15.21
2022-10-19T09:53:56.419Z,15.22
2022-10-19T09:56:29.459Z,15.22
2022-10-19T09:59:04.430Z,15.24
2022-10-19T10:14:29.366Z,15.27
2022-10-19T10:17:17.377Z,15.27
2022-10-19T10:20:04.214Z,15.25
2022-10-19T10:22:44.524Z,15.23
2022-10-19T10:25:20.789Z,15.24
2022-10-19T10:28:04.417Z,15.27
2022-10-19T10:38:33.439Z,15.27
2022-10-19T10:41:21.725Z,15.26
2022-10-19T10:44:02.155Z,15.27
2022-10-19T10:46:57.393Z,15.26
2022-10-19T10:49:37.026Z,15.23
2022-10-19T10:52:22.418Z,15.19
2022-10-19T11:05:39.418Z,15.19
2022-10-19T11:08:24.489Z,15.18
2022-10-19T11:11:16.405Z,15.17
2022-10-19T11:13:58.242Z,15.18
2022-10-19T11:16:46.400Z,15.15
2022-10-19T11:19:25.925Z,15.17
2022-10-19T11:32:39.361Z,15.17
2022-10-19T11:35:39.377Z,15.18
2022-10-19T11:38:34.471Z,15.19
2022-10-19T11:41:31.103Z,15.17
2022-10-19T11:44:30.453Z,15.16
2022-10-19T11:47:42.387Z,15.17
2022-10-19T12:01:09.408Z,15.15
2022-10-19T12:04:29.394Z,15.14
2022-10-19T12:07:43.392Z,15.13
2022-10-19T12:10:26.624Z,15.13
2022-10-19T12:13:11.373Z,15.13
2022-10-19T12:26:27.393Z,15.13
2022-10-19T12:29:13.615Z,15.09
2022-10-19T12:31:54.401Z,15.11
2022-10-19T12:34:43.874Z,15.09
2022-10-19T12:37:35.569Z,15.08
2022-10-19T12:54:18.375Z,15.15
2022-10-19T12:57:02.391Z,15.18
2022-10-19T12:59:37.675Z,15.24
2022-10-19T13:05:18.523Z,15.34
2022-10-19T13:07:58.416Z,15.36
2022-10-19T13:21:10.401Z,15.29
2022-10-19T13:23:43.686Z,15.30
2022-10-19T13:26:42.603Z,15.28
2022-10-19T13:29:26.867Z,15.27
2022-10-19T13:32:47.398Z,15.24
2022-10-19T13:46:17.002Z,15.16
2022-10-19T13:49:36.321Z,15.15
2022-10-19T13:52:56.406Z,15.15
2022-10-19T13:56:21.183Z,15.16
2022-10-19T13:59:38.419Z,15.18
2022-10-19T14:12:52.409Z,15.14
2022-10-19T14:15:29.827Z,15.12
2022-10-19T14:18:11.976Z,15.16
2022-10-19T14:20:57.668Z,15.17
2022-10-19T14:23:39.433Z,15.18
2022-10-19T14:26:18.830Z,15.20
2022-10-19T14:29:02.449Z,15.20
2022-10-19T14:39:28.360Z,15.19
2022-10-19T14:42:11.441Z,15.76
2022-10-19T14:44:46.546Z,16.82
2022-10-19T14:47:37.115Z,17.70
2022-10-19T14:50:11.127Z,18.44
2022-10-19T14:52:47.376Z,18.63
2022-10-19T15:06:10.392Z,18.81
2022-10-19T15:08:50.573Z,18.47
2022-10-19T15:11:37.390Z,18.15
2022-10-19T15:14:25.593Z,17.80
2022-10-19T15:17:08.437Z,17.48
2022-10-19T15:19:41.657Z,17.22
2022-10-19T15:32:56.350Z,16.33
2022-10-19T15:35:40.378Z,16.14
2022-10-19T15:38:24.009Z,16.03
2022-10-19T15:41:07.376Z,15.89
2022-10-19T15:43:48.140Z,15.78
2022-10-19T15:46:35.466Z,15.70
2022-10-19T15:49:53.615Z,15.58
2022-10-19T15:59:34.400Z,15.31
2022-10-19T16:02:13.362Z,15.25
2022-10-19T16:04:53.401Z,15.20
2022-10-19T16:07:32.540Z,15.15
2022-10-19T16:10:17.391Z,15.11
2022-10-19T16:12:51.422Z,15.09
2022-10-19T16:26:23.350Z,14.91
2022-10-19T16:29:03.403Z,14.88
2022-10-19T16:31:37.617Z,14.86
2022-10-19T16:34:10.366Z,14.85
2022-10-19T16:36:43.518Z,14.82
2022-10-19T16:39:10.077Z,14.77
2022-10-19T16:55:34.513Z,14.66
2022-10-19T16:58:07.632Z,14.62
2022-10-19T17:00:41.381Z,14.60
2022-10-19T17:03:14.443Z,14.58
2022-10-19T17:05:54.383Z,14.57
2022-10-19T17:08:37.115Z,14.56
2022-10-19T17:21:44.351Z,14.45
2022-10-19T17:24:25.385Z,14.43
2022-10-19T17:27:01.931Z,14.42
2022-10-19T17:29:42.365Z,14.39
2022-10-19T17:32:15.510Z,14.35
2022-10-19T17:34:42.074Z,14.35
2022-10-19T17:47:38.516Z,14.19
2022-10-19T17:50:18.396Z,14.14
2022-10-19T17:52:51.392Z,14.15
2022-10-19T17:55:18.045Z,14.13
2022-10-19T17:57:59.092Z,14.10
2022-10-19T18:14:35.347Z,14.02
2022-10-19T18:17:15.356Z,14.01
2022-10-19T18:19:48.798Z,13.99
2022-10-19T18:22:22.361Z,13.96
2022-10-19T18:24:55.505Z,13.95
2022-10-19T18:27:22.053Z,13.94
2022-10-19T18:30:03.435Z,13.92
2022-10-19T18:40:06.340Z,13.84
2022-10-19T18:42:46.379Z,13.84
2022-10-19T18:45:21.441Z,13.81
2022-10-19T18:47:54.390Z,13.81
2022-10-19T18:50:29.109Z,13.81
2022-10-19T18:53:02.377Z,13.81
2022-10-19T19:06:55.364Z,13.75
2022-10-19T19:09:28.482Z,13.73
2022-10-19T19:11:55.027Z,13.70
2022-10-19T19:14:35.381Z,13.67
2022-10-19T19:17:08.505Z,13.67
2022-10-19T19:19:35.218Z,13.67
2022-10-19T19:35:57.353Z,13.56
2022-10-19T19:38:30.737Z,13.54
2022-10-19T19:41:04.349Z,13.51
2022-10-19T19:43:39.211Z,13.52
2022-10-19T19:46:15.389Z,13.49
2022-10-19T19:48:48.734Z,13.47
2022-10-19T20:01:39.363Z,13.42
2022-10-19T20:04:19.867Z,13.40
2022-10-19T20:06:53.430Z,13.36
2022-10-19T20:09:26.340Z,13.35
2022-10-19T20:11:59.408Z,13.34
2022-10-19T20:14:25.975Z,13.31
2022-10-19T20:27:22.318Z,13.30
2022-10-19T20:30:02.380Z,13.29
2022-10-19T20:32:37.033Z,13.27
2022-10-19T20:35:11.362Z,13.26
2022-10-19T20:37:48.033Z,13.22
2022-10-19T20:43:30.322Z,13.19
2022-10-19T20:53:45.389Z,13.15
2022-10-19T20:56:23.590Z,13.13
2022-10-19T20:59:07.395Z,13.14
2022-10-19T21:01:42.636Z,13.14
2022-10-19T21:04:20.412Z,13.12
2022-10-19T21:06:53.394Z,13.09
2022-10-19T21:09:29.364Z,13.10
2022-10-19T21:22:40.751Z,12.96
2022-10-19T21:25:14.637Z,12.93
2022-10-19T21:27:47.354Z,12.94
2022-10-19T21:30:20.694Z,12.87
2022-10-19T21:32:54.343Z,12.87
2022-10-19T21:49:30.330Z,12.77
2022-10-19T21:52:15.145Z,12.76
2022-10-19T21:54:49.390Z,12.72
2022-10-19T21:57:22.363Z,12.71
2022-10-19T21:59:55.385Z,12.71
2022-10-19T22:02:21.985Z,12.70
2022-10-19T22:05:05.397Z,12.69
2022-10-19T22:14:49.323Z,12.66
2022-10-19T22:17:29.401Z,12.66
2022-10-19T22:20:06.166Z,12.63
2022-10-19T22:22:49.177Z,12.62
2022-10-19T22:25:24.385Z,12.62
2022-10-19T22:27:57.362Z,12.60
2022-10-19T22:41:09.367Z,12.54
2022-10-19T22:43:42.457Z,12.54
2022-10-19T22:46:08.995Z,12.55
2022-10-19T22:48:49.345Z,12.56
2022-10-19T22:51:22.408Z,12.57
2022-10-19T22:53:48.973Z,12.58
2022-10-19T23:10:14.191Z,12.57
2022-10-19T23:12:49.884Z,12.56
2022-10-19T23:15:23.367Z,12.53
2022-10-19T23:17:57.738Z,12.54
2022-10-19T23:20:30.370Z,12.55
2022-10-19T23:23:04.463Z,12.53
2022-10-19T23:35:53.299Z,12.53
2022-10-19T23:38:33.414Z,12.52
2022-10-19T23:41:06.865Z,12.53
2022-10-19T23:43:40.359Z,12.51
2022-10-19T23:46:13.641Z,12.50
2022-10-19T23:48:47.358Z,12.50
